Time;durP1;ratioP1;P1;durP2;ratioP2;P2;SDS_P1;SDS_P2;PMS_P1;PMS_P2;Temp;Humidity;BMP_temperature;BMP_pressure;BME280_temperature;BME280_humidity;BME280_pressure;Samples;Min_cycle;Max_cycle;Signal;HPM_P1;HPM_P2
2022/09/02 00:01:01;;;;;;;17.87;16.13;;;;;;;21.26;97.33;94571.69;5052099;28;20473;-80
2022/09/02 00:03:29;;;;;;;19.37;16.13;;;;;;;21.22;97.48;94565.91;5051935;28;20528;-80
2022/09/02 00:05:57;;;;;;;17.87;16.17;;;;;;;21.26;96.91;94567.16;5051784;28;20446;-80
2022/09/02 00:08:24;;;;;;;21.73;17.17;;;;;;;21.31;96.63;94569.22;5051931;28;20932;-80
2022/09/02 00:10:51;;;;;;;18.87;16.77;;;;;;;21.32;96.94;94566.34;5016629;28;20446;-80
2022/09/02 00:13:18;;;;;;;22.93;17.83;;;;;;;21.32;97.06;94563.69;5052054;28;20804;-80
2022/09/02 00:15:46;;;;;;;18.53;16.43;;;;;;;21.28;96.81;94551.78;5051963;28;20454;-80
2022/09/02 00:18:16;;;;;;;22.20;16.50;;;;;;;21.31;96.68;94561.22;5051873;28;20477;-80
2022/09/02 00:20:45;;;;;;;19.17;17.13;;;;;;;21.34;97.06;94566.16;5051947;28;20446;-80
2022/09/02 00:23:12;;;;;;;18.97;16.37;;;;;;;21.31;96.81;94558.56;5052094;28;20441;-80
2022/09/02 00:25:40;;;;;;;18.53;16.73;;;;;;;21.35;97.12;94567.78;5051690;28;20457;-80
2022/09/02 00:28:07;;;;;;;20.47;16.40;;;;;;;21.34;97.37;94568.81;5051684;28;20446;-80
2022/09/02 00:30:35;;;;;;;21.27;16.57;;;;;;;21.36;97.73;94580.09;5051852;28;20441;-80
2022/09/02 00:33:02;;;;;;;23.90;17.10;;;;;;;21.37;97.48;94578.25;5051812;28;20473;-81
2022/09/02 00:35:30;;;;;;;20.70;18.27;;;;;;;21.32;97.33;94579.69;5051642;28;20441;-80
2022/09/02 00:37:58;;;;;;;18.27;16.23;;;;;;;21.31;97.08;94579.91;5051686;28;20489;-80
2022/09/02 00:40:27;;;;;;;20.73;18.60;;;;;;;21.35;97.32;94581.13;5051573;28;20449;-80
2022/09/02 00:42:55;;;;;;;20.97;17.20;;;;;;;21.30;97.21;94581.75;5051910;28;20948;-81
2022/09/02 00:45:22;;;;;;;19.83;17.80;;;;;;;21.32;97.71;94597.56;5052023;28;20465;-80
2022/09/02 00:47:50;;;;;;;21.33;19.03;;;;;;;21.29;98.05;94592.63;5051860;28;20442;-80
2022/09/02 00:50:22;;;;;;;22.93;17.23;;;;;;;21.27;97.95;94594.69;5051719;28;20438;-80
2022/09/02 00:52:53;;;;;;;19.57;17.27;;;;;;;21.25;97.76;94588.72;5051728;28;20438;-80
2022/09/02 00:55:24;;;;;;;19.90;17.50;;;;;;;21.23;97.69;94588.94;5051495;28;20434;-80
2022/09/02 00:57:56;;;;;;;20.40;18.40;;;;;;;21.22;97.54;94583.78;5051626;28;20486;-80
2022/09/02 01:00:25;;;;;;;21.30;19.10;;;;;;;21.22;97.88;94581.09;5051901;28;20446;-80
2022/09/02 01:02:55;;;;;;;19.20;17.30;;;;;;;21.23;98.25;94588.06;5051572;28;20442;-80
2022/09/02 01:05:24;;;;;;;19.63;17.03;;;;;;;21.25;98.14;94592.22;5051740;28;20448;-80
2022/09/02 01:07:54;;;;;;;19.80;17.70;;;;;;;21.25;98.33;94586.06;5032566;28;20796;-80
2022/09/02 01:10:24;;;;;;;21.27;17.57;;;;;;;21.22;98.37;94587.25;5053169;28;20496;-80
2022/09/02 01:12:55;;;;;;;19.73;17.83;;;;;;;21.18;98.61;94577.19;5055314;28;20463;-80
2022/09/02 01:15:22;;;;;;;23.57;17.43;;;;;;;21.20;98.45;94585.81;5054983;28;20495;-80
2022/09/02 01:17:50;;;;;;;21.93;18.03;;;;;;;21.18;98.98;94578.00;5054726;28;20535;-80
2022/09/02 01:20:20;;;;;;;21.77;19.50;;;;;;;21.15;98.73;94570.41;5055037;28;20503;-80
2022/09/02 01:22:49;;;;;;;20.70;18.70;;;;;;;21.17;98.42;94573.72;5054897;28;20441;-80
2022/09/02 01:25:20;;;;;;;20.47;18.30;;;;;;;21.19;98.80;94576.16;5054945;28;20445;-80
2022/09/02 01:27:47;;;;;;;21.90;19.17;;;;;;;21.17;98.33;94568.38;5054943;28;20441;-80
2022/09/02 01:30:18;;;;;;;27.03;20.07;;;;;;;21.18;98.12;94574.53;5054892;28;20473;-80
2022/09/02 01:32:44;;;;;;;30.20;21.63;;;;;;;21.16;98.16;94566.72;5054554;28;20538;-80
2022/09/02 01:35:12;;;;;;;22.40;19.20;;;;;;;21.19;98.41;94576.16;5054734;28;20499;-80
2022/09/02 01:37:39;;;;;;;20.37;18.33;;;;;;;21.18;98.46;94575.34;5054421;28;20991;-80
2022/09/02 01:40:10;;;;;;;22.80;19.80;;;;;;;21.21;97.75;94574.13;5054893;28;20461;-80
2022/09/02 01:42:38;;;;;;;28.60;19.10;;;;;;;21.24;98.13;94576.41;5054722;28;20453;-80
2022/09/02 01:45:06;;;;;;;21.93;19.63;;;;;;;21.24;98.23;94574.56;5054490;28;20442;-80
2022/09/02 01:47:33;;;;;;;25.20;20.73;;;;;;;21.17;98.48;94576.38;5054400;28;20454;-80
2022/09/02 01:50:00;;;;;;;20.70;18.70;;;;;;;21.14;98.78;94567.97;5054560;28;20442;-80
2022/09/02 01:52:28;;;;;;;31.63;20.17;;;;;;;21.10;98.35;94558.69;5054353;28;20441;-80
2022/09/02 01:54:56;;;;;;;24.13;20.80;;;;;;;21.06;98.26;94560.13;5054499;28;20453;-80
2022/09/02 01:57:24;;;;;;;23.20;20.00;;;;;;;21.03;98.44;94550.69;5054133;28;20823;-80
2022/09/02 01:59:51;;;;;;;33.00;20.80;;;;;;;21.00;99.01;94549.25;5054256;28;20822;-80
2022/09/02 02:02:19;;;;;;;27.50;20.83;;;;;;;21.02;98.82;94549.84;5054316;28;20442;-80
2022/09/02 02:04:47;;;;;;;22.70;19.53;;;;;;;20.64;100.00;94544.22;5053876;28;20481;-80
2022/09/02 02:07:16;;;;;;;21.70;19.53;;;;;;;20.66;100.00;94544.03;5054224;28;20453;-80
2022/09/02 02:09:43;;;;;;;22.63;20.30;;;;;;;20.67;100.00;94540.34;5054470;28;20445;-80
2022/09/02 02:12:10;;;;;;;22.07;19.97;;;;;;;20.75;100.00;94550.81;5054239;28;20450;-81
2022/09/02 02:14:38;;;;;;;22.10;19.80;;;;;;;20.78;100.00;94546.91;5054316;28;20794;-80
2022/09/02 02:17:05;;;;;;;22.63;20.33;;;;;;;20.77;100.00;94550.59;5053918;28;20472;-79
2022/09/02 02:19:33;;;;;;;20.27;18.10;;;;;;;20.81;100.00;94552.66;5054156;28;20454;-80
2022/09/02 02:22:00;;;;;;;25.03;19.80;;;;;;;20.83;99.83;94560.50;5052975;28;20819;-80
2022/09/02 02:24:27;;;;;;;22.80;19.23;;;;;;;20.70;100.00;94550.59;5053777;28;20835;-80
2022/09/02 02:26:54;;;;;;;24.27;20.80;;;;;;;20.71;100.00;94552.25;5053756;28;20442;-80
2022/09/02 02:29:21;;;;;;;23.93;21.43;;;;;;;20.70;100.00;94558.59;5034966;28;20807;-80
2022/09/02 02:31:50;;;;;;;21.33;19.23;;;;;;;20.63;100.00;94557.75;5053661;28;20528;-80
2022/09/02 02:34:17;;;;;;;22.40;19.40;;;;;;;20.51;100.00;94559.34;5018109;28;20845;-80
2022/09/02 02:36:44;;;;;;;22.50;19.87;;;;;;;20.55;100.00;94552.59;5053351;28;20445;-80
2022/09/02 02:39:11;;;;;;;24.40;20.63;;;;;;;20.55;100.00;94561.44;5053500;28;20508;-81
2022/09/02 02:41:40;;;;;;;24.40;20.80;;;;;;;20.61;100.00;94563.28;5053203;28;20529;-80
2022/09/02 02:44:07;;;;;;;27.97;21.40;;;;;;;20.61;100.00;94552.63;5053319;28;20444;-80
2022/09/02 02:46:34;;;;;;;27.33;22.90;;;;;;;20.66;100.00;94562.69;5052980;28;20454;-80
2022/09/02 02:49:03;;;;;;;23.57;21.07;;;;;;;20.73;100.00;94566.19;5053205;28;20485;-80
2022/09/02 02:51:29;;;;;;;21.37;18.17;;;;;;;20.76;100.00;94559.63;5053171;28;20862;-80
2022/09/02 02:53:56;;;;;;;22.47;20.10;;;;;;;20.69;100.00;94570.28;5053085;28;20845;-79
2022/09/02 02:56:23;;;;;;;18.83;16.93;;;;;;;20.62;100.00;94574.78;5053240;28;20453;-80
2022/09/02 02:58:50;;;;;;;22.60;16.83;;;;;;;20.50;100.00;94571.03;5034369;28;20480;-80
2022/09/02 03:01:17;;;;;;;15.07;13.47;;;;;;;20.49;100.00;94567.53;5052977;28;20437;-80
2022/09/02 03:03:43;;;;;;;12.70;11.40;;;;;;;20.44;100.00;94569.16;5053213;28;20450;-80
2022/09/02 03:06:11;;;;;;;12.23;9.87;;;;;;;20.38;99.29;94574.22;5052872;28;20572;-80
2022/09/02 03:08:38;;;;;;;9.67;8.77;;;;;;;20.38;98.98;94574.22;5052731;28;20453;-80
2022/09/02 03:11:06;;;;;;;13.07;9.00;;;;;;;20.43;98.62;94576.31;5052984;28;20445;-80
2022/09/02 03:13:33;;;;;;;9.47;8.47;;;;;;;20.40;98.93;94563.41;5052718;28;20529;-80
2022/09/02 03:16:00;;;;;;;11.30;9.73;;;;;;;20.44;98.97;94553.16;5052842;28;20437;-80
2022/09/02 03:18:27;;;;;;;10.70;9.60;;;;;;;20.48;99.39;94563.22;5052890;28;20478;-80
2022/09/02 03:20:54;;;;;;;11.80;9.77;;;;;;;20.54;99.75;94566.97;5052881;28;20495;-79
2022/09/02 03:23:22;;;;;;;10.70;9.60;;;;;;;20.42;99.62;94558.69;5017506;28;20454;-81
2022/09/02 03:25:49;;;;;;;10.27;9.33;;;;;;;20.25;99.98;94552.84;5052678;28;20446;-82
2022/09/02 03:28:16;;;;;;;10.37;8.83;;;;;;;20.34;99.81;94570.31;5050406;28;20533;-82
2022/09/02 03:30:45;;;;;;;15.20;10.73;;;;;;;20.37;99.80;94569.91;5052769;28;20495;-80
2022/09/02 03:33:12;;;;;;;10.53;9.43;;;;;;;20.41;99.88;94573.03;5052115;28;20995;-81
2022/09/02 03:35:40;;;;;;;10.60;9.60;;;;;;;20.45;99.87;94568.13;5052376;28;20453;-82
2022/09/02 03:38:08;;;;;;;8.90;8.10;;;;;;;20.48;99.62;94567.72;5052438;28;20473;-81
2022/09/02 03:40:37;;;;;;;11.67;10.47;;;;;;;20.51;100.00;94568.16;5053004;28;20446;-80
2022/09/02 03:43:04;;;;;;;11.03;9.93;;;;;;;20.58;100.00;94576.19;5053423;28;20831;-80
2022/09/02 03:45:32;;;;;;;11.17;10.07;;;;;;;20.58;99.69;94577.03;5053194;28;20454;-81
2022/09/02 03:47:59;;;;;;;12.50;11.07;;;;;;;20.57;99.79;94577.22;5053323;28;20450;-80
2022/09/02 03:50:28;;;;;;;14.73;10.37;;;;;;;20.48;99.82;94589.06;5053335;28;20940;-80
2022/09/02 03:52:56;;;;;;;11.43;10.20;;;;;;;20.37;100.00;94587.75;5053768;28;20442;-80
2022/09/02 03:55:23;;;;;;;12.23;11.03;;;;;;;20.34;100.00;94594.31;5053545;28;20460;-80
2022/09/02 03:57:51;;;;;;;11.37;10.27;;;;;;;20.28;100.00;94595.09;5053656;28;20520;-80
2022/09/02 04:00:21;;;;;;;12.73;11.43;;;;;;;20.29;100.00;94602.06;5053245;28;20429;-81
2022/09/02 04:02:48;;;;;;;12.17;10.87;;;;;;;20.21;100.00;94606.72;5053418;28;20446;-80
2022/09/02 04:05:15;;;;;;;11.60;10.40;;;;;;;20.21;100.00;94607.53;5053063;28;20447;-80
2022/09/02 04:07:43;;;;;;;12.33;10.90;;;;;;;20.24;100.00;94609.84;5051595;28;20861;-80
2022/09/02 04:10:11;;;;;;;13.27;10.70;;;;;;;20.15;100.00;94613.66;5053329;28;20537;-80
2022/09/02 04:12:38;;;;;;;14.70;10.87;;;;;;;20.20;100.00;94600.56;5049367;28;20461;-81
2022/09/02 04:15:10;;;;;;;14.93;10.97;;;;;;;20.29;100.00;94610.06;5052199;28;20441;-80
2022/09/02 04:17:37;;;;;;;11.53;10.33;;;;;;;20.38;100.00;94613.38;5037987;28;20442;-80
2022/09/02 04:20:06;;;;;;;13.27;11.90;;;;;;;20.42;100.00;94618.16;5046206;28;20457;-80
2022/09/02 04:22:33;;;;;;;12.80;11.50;;;;;;;20.48;100.00;94616.53;5033404;28;20453;-81
2022/09/02 04:25:00;;;;;;;11.47;10.43;;;;;;;20.53;100.00;94627.44;5042312;28;20921;-81
2022/09/02 04:27:27;;;;;;;12.67;11.47;;;;;;;20.57;100.00;94627.88;5052530;28;20990;-81
2022/09/02 04:29:55;;;;;;;13.37;10.80;;;;;;;20.64;100.00;94636.72;5051190;28;20445;-81
2022/09/02 04:32:25;;;;;;;12.47;11.37;;;;;;;20.68;100.00;94632.63;5051672;28;20543;-82
2022/09/02 04:34:52;;;;;;;13.40;11.00;;;;;;;20.68;100.00;94628.13;5052071;28;20524;-82
2022/09/02 04:37:19;;;;;;;12.07;9.83;;;;;;;20.77;100.00;94639.44;5052123;28;20937;-81
2022/09/02 04:39:45;;;;;;;13.70;11.53;;;;;;;20.80;99.86;94641.69;5051664;28;20488;-82
2022/09/02 04:42:12;;;;;;;13.63;11.57;;;;;;;20.83;99.63;94641.34;5051573;28;20461;-82
2022/09/02 04:44:39;;;;;;;21.00;11.20;;;;;;;20.85;99.37;94647.28;5052143;28;20449;-81
2022/09/02 04:47:06;;;;;;;14.27;12.60;;;;;;;20.89;99.23;94639.72;5055849;28;20476;-81
2022/09/02 04:49:34;;;;;;;13.93;10.80;;;;;;;20.90;98.82;94642.19;5055409;28;20508;-81
2022/09/02 04:52:01;;;;;;;16.40;12.20;;;;;;;20.92;98.87;94644.63;5036775;28;20495;-82
2022/09/02 04:54:28;;;;;;;14.80;12.27;;;;;;;20.93;98.92;94641.78;5054644;28;20452;-81
2022/09/02 04:56:55;;;;;;;13.50;10.83;;;;;;;20.94;98.85;94643.41;5054666;28;20456;-81
2022/09/02 04:59:21;;;;;;;15.77;11.30;;;;;;;20.97;98.71;94642.19;5054262;28;20904;-80
2022/09/02 05:01:49;;;;;;;14.70;10.57;;;;;;;21.02;98.46;94639.75;5035485;28;20449;-81
2022/09/02 05:04:16;;;;;;;14.80;12.17;;;;;;;21.08;98.81;94648.78;5053723;28;20491;-81
2022/09/02 05:06:45;;;;;;;14.97;12.40;;;;;;;21.11;99.14;94643.06;5054059;28;20445;-81
2022/09/02 05:09:12;;;;;;;17.07;12.87;;;;;;;21.11;99.20;94651.09;5035474;28;20955;-81
2022/09/02 05:11:39;;;;;;;19.67;12.60;;;;;;;21.10;99.23;94644.06;5054131;28;20437;-82
2022/09/02 05:14:07;;;;;;;13.87;12.57;;;;;;;21.11;99.46;94648.41;5056163;28;20449;-81
2022/09/02 05:16:36;;;;;;;18.93;13.70;;;;;;;21.11;99.34;94646.56;5055522;28;20434;-82
2022/09/02 05:19:05;;;;;;;12.87;11.77;;;;;;;21.10;99.80;94646.75;5055875;28;20481;-81
2022/09/02 05:21:31;;;;;;;13.37;11.50;;;;;;;21.09;99.54;94648.59;5056333;28;20441;-80
2022/09/02 05:24:00;;;;;;;14.93;12.13;;;;;;;21.01;99.48;94641.59;5056748;28;20811;-81
2022/09/02 05:26:26;;;;;;;14.93;11.90;;;;;;;21.01;99.83;94649.59;5056177;28;20924;-81
2022/09/02 05:28:53;;;;;;;12.90;11.60;;;;;;;20.97;100.00;94636.84;5056166;28;20476;-80
2022/09/02 05:31:21;;;;;;;12.37;11.27;;;;;;;21.02;100.00;94645.91;5055924;28;20806;-81
2022/09/02 05:33:48;;;;;;;13.13;11.93;;;;;;;21.03;100.00;94641.38;5055527;28;20476;-81
2022/09/02 05:36:18;;;;;;;16.13;12.60;;;;;;;21.03;100.00;94647.53;5054948;28;20446;-81
2022/09/02 05:38:46;;;;;;;23.27;12.50;;;;;;;21.06;100.00;94646.31;5055442;28;20498;-81
2022/09/02 05:41:18;;;;;;;13.87;12.63;;;;;;;21.07;100.00;94649.81;5054700;28;20912;-79
2022/09/02 05:43:46;;;;;;;12.03;10.93;;;;;;;21.09;100.00;94645.09;5049272;28;20433;-82
2022/09/02 05:46:16;;;;;;;16.40;12.30;;;;;;;21.11;99.53;94643.91;5053970;28;21036;-81
2022/09/02 05:51:45;;;;;;;13.20;11.90;;;;;;;21.23;99.23;94642.31;4998476;28;20494;-81
2022/09/02 05:54:14;;;;;;;12.20;10.83;;;;;;;21.26;99.33;94647.25;4993725;28;20453;-80
2022/09/02 05:56:44;;;;;;;11.83;10.70;;;;;;;21.34;98.61;94654.22;4987174;28;20447;-80
2022/09/02 05:59:11;;;;;;;13.03;11.20;;;;;;;21.38;99.15;94644.78;4995593;28;20468;-80
2022/09/02 06:01:38;;;;;;;12.70;11.40;;;;;;;21.46;98.25;94649.16;4993539;28;20460;-80
2022/09/02 06:04:05;;;;;;;11.07;10.00;;;;;;;21.50;97.86;94648.53;4980109;28;20566;-81
2022/09/02 06:06:33;;;;;;;11.77;10.57;;;;;;;21.53;97.41;94653.47;4995264;28;20448;-80
2022/09/02 06:09:00;;;;;;;11.27;10.17;;;;;;;21.51;96.99;94646.69;5006761;28;20440;-80
2022/09/02 06:11:28;;;;;;;12.77;10.63;;;;;;;21.56;96.06;94642.38;4950030;28;20471;-81
2022/09/02 06:13:56;;;;;;;11.00;10.00;;;;;;;21.59;95.79;94644.63;4994717;28;20901;-81
2022/09/02 06:16:23;;;;;;;13.87;11.20;;;;;;;21.64;95.62;94650.19;4992051;28;20959;-81
2022/09/02 06:18:50;;;;;;;10.93;9.83;;;;;;;21.65;95.41;94648.31;4992238;28;20480;-81
2022/09/02 06:21:19;;;;;;;12.83;10.40;;;;;;;21.68;95.32;94647.91;4992222;28;20455;-81
2022/09/02 06:23:46;;;;;;;17.47;12.40;;;;;;;21.72;94.99;94656.38;5051183;28;20454;-81
2022/09/02 06:26:14;;;;;;;10.90;9.70;;;;;;;21.69;94.01;94654.13;5053525;28;20444;-81
2022/09/02 06:28:41;;;;;;;13.27;11.07;;;;;;;21.74;94.78;94654.31;5053623;28;20438;-81
2022/09/02 06:31:13;;;;;;;12.70;11.37;;;;;;;21.76;95.36;94652.25;5053643;28;20968;-81
2022/09/02 06:33:41;;;;;;;11.17;10.17;;;;;;;21.82;94.87;94656.78;5053317;28;20469;-81
2022/09/02 06:36:09;;;;;;;9.77;8.87;;;;;;;21.81;94.00;94661.31;5053267;28;20864;-81
2022/09/02 06:38:38;;;;;;;11.73;10.20;;;;;;;21.82;92.54;94659.44;5053417;28;20489;-81
2022/09/02 06:41:05;;;;;;;11.70;10.50;;;;;;;21.79;91.91;94668.69;5053440;28;20441;-81
2022/09/02 06:43:32;;;;;;;14.63;10.70;;;;;;;21.81;92.47;94665.81;5053773;28;20453;-81
2022/09/02 06:45:59;;;;;;;12.03;10.17;;;;;;;21.83;92.95;94667.25;5053287;28;20453;-81
2022/09/02 06:48:27;;;;;;;10.23;9.20;;;;;;;21.89;92.65;94663.75;5053341;28;20535;-81
2022/09/02 06:50:54;;;;;;;13.60;11.23;;;;;;;21.91;92.63;94668.91;5054632;28;20460;-84
2022/09/02 06:53:22;;;;;;;11.13;10.00;;;;;;;21.93;92.74;94672.19;5054525;28;20442;-81
2022/09/02 06:55:49;;;;;;;12.67;11.50;;;;;;;21.96;92.95;94671.78;5054297;28;20437;-82
2022/09/02 06:58:16;;;;;;;11.00;9.83;;;;;;;21.96;93.65;94671.78;5054584;28;20438;-81
2022/09/02 07:00:47;;;;;;;11.23;10.13;;;;;;;21.99;93.21;94671.38;5054057;28;20489;-81
2022/09/02 07:06:09;;;;;;;10.60;9.60;;;;;;;22.01;92.62;94677.34;5054350;28;20424;-82
2022/09/02 07:08:37;;;;;;;10.43;9.40;;;;;;;21.98;92.18;94677.75;5054234;28;20799;-82
2022/09/02 07:11:05;;;;;;;13.80;9.90;;;;;;;21.98;92.49;94683.09;5053876;28;20477;-82
2022/09/02 07:13:31;;;;;;;11.43;10.20;;;;;;;22.00;93.22;94685.56;5052620;28;20453;-82
2022/09/02 07:15:58;;;;;;;10.57;9.37;;;;;;;21.99;92.18;94684.75;5034049;28;20448;-82
2022/09/02 07:18:25;;;;;;;9.10;8.30;;;;;;;22.00;91.06;94680.22;5052397;28;20453;-82
2022/09/02 07:20:53;;;;;;;8.97;8.17;;;;;;;22.01;89.23;94681.88;5053012;28;20453;-82
2022/09/02 07:23:21;;;;;;;8.20;7.50;;;;;;;21.98;88.99;94682.28;5048580;28;20441;-82
2022/09/02 07:25:48;;;;;;;10.50;8.20;;;;;;;21.99;89.04;94689.28;5050895;28;20453;-81
2022/09/02 07:28:15;;;;;;;8.40;7.50;;;;;;;22.04;89.40;94693.00;5050722;28;20456;-81
2022/09/02 07:30:42;;;;;;;13.17;8.47;;;;;;;22.08;89.28;94691.56;5050672;28;20777;-81
2022/09/02 07:33:12;;;;;;;7.27;6.67;;;;;;;22.12;90.13;94687.44;5051104;28;20474;-81
2022/09/02 07:35:40;;;;;;;9.00;8.20;;;;;;;22.18;89.94;94697.31;5051615;28;20457;-81
2022/09/02 07:38:07;;;;;;;9.73;8.10;;;;;;;22.23;91.80;94692.16;5050907;28;20800;-81
2022/09/02 07:40:36;;;;;;;7.23;6.63;;;;;;;22.25;90.14;94690.09;5050648;28;20481;-82
2022/09/02 07:43:04;;;;;;;8.30;7.20;;;;;;;22.17;87.14;94698.34;5052267;28;20456;-82
2022/09/02 07:45:31;;;;;;;7.73;7.03;;;;;;;21.95;86.02;94694.19;5052402;28;20442;-81
2022/09/02 07:47:59;;;;;;;7.83;7.13;;;;;;;21.80;86.79;94696.22;5052299;28;20430;-80
2022/09/02 07:50:26;;;;;;;7.43;6.83;;;;;;;21.75;87.32;94691.50;5052723;28;20484;-80
2022/09/02 07:52:54;;;;;;;7.53;6.83;;;;;;;21.82;88.89;94684.31;5052548;28;20933;-81
2022/09/02 07:55:22;;;;;;;8.90;8.10;;;;;;;21.89;89.47;94689.66;5052189;28;20450;-81
2022/09/02 07:57:53;;;;;;;8.97;8.17;;;;;;;21.86;87.65;94695.41;5051964;28;20932;-82
2022/09/02 08:00:21;;;;;;;8.47;7.67;;;;;;;21.91;89.66;94693.75;5051831;28;20481;-81
2022/09/02 08:02:49;;;;;;;9.30;7.80;;;;;;;21.94;89.10;94696.03;5052096;28;20445;-81
2022/09/02 08:05:16;;;;;;;8.13;7.03;;;;;;;21.98;89.04;94709.00;5051919;28;20446;-81
2022/09/02 08:07:43;;;;;;;8.67;7.93;;;;;;;22.01;89.04;94697.91;5052170;28;20739;-81
2022/09/02 08:10:11;;;;;;;11.87;9.67;;;;;;;21.98;88.29;94701.81;5051841;28;20449;-81
2022/09/02 08:12:40;;;;;;;9.07;8.23;;;;;;;21.99;86.78;94711.47;5051710;28;20533;-81
2022/09/02 08:15:18;;;;;;;9.53;8.73;;;;;;;21.99;87.40;94710.66;5051777;28;20473;-81
2022/09/02 08:17:45;;;;;;;10.00;9.00;;;;;;;22.01;88.39;94706.75;5052189;28;20449;-81
2022/09/02 08:20:15;;;;;;;16.40;9.93;;;;;;;22.01;88.19;94709.41;5053319;28;21200;-81
2022/09/02 08:22:42;;;;;;;11.03;8.80;;;;;;;22.03;88.12;94715.38;5056146;28;20465;-81
2022/09/02 08:25:09;;;;;;;11.13;10.03;;;;;;;21.98;89.88;94719.69;5055796;28;20956;-81
2022/09/02 08:27:37;;;;;;;11.23;10.13;;;;;;;22.02;89.49;94712.91;5056174;28;20442;-81
2022/09/02 08:30:05;;;;;;;12.30;10.30;;;;;;;22.04;89.56;94709.03;5056390;28;20446;-81
2022/09/02 08:32:33;;;;;;;12.23;10.97;;;;;;;22.09;89.44;94705.75;5055776;28;20449;-81
2022/09/02 08:35:01;;;;;;;12.50;10.60;;;;;;;22.11;89.92;94714.38;5055931;28;20843;-81
2022/09/02 08:37:30;;;;;;;13.40;9.93;;;;;;;22.09;90.58;94701.22;5055864;28;20451;-81
2022/09/02 08:39:57;;;;;;;11.10;10.00;;;;;;;22.12;92.05;94706.16;5055511;28;20484;-81
2022/09/02 08:42:30;;;;;;;10.17;9.27;;;;;;;22.15;92.30;94695.03;5055415;28;20437;-80
2022/09/02 08:45:04;;;;;;;11.23;10.13;;;;;;;22.22;91.85;94698.53;5055987;28;20449;-81
2022/09/02 08:47:35;;;;;;;11.73;10.50;;;;;;;22.26;91.87;94698.94;5055346;28;20456;-80
2022/09/02 08:50:09;;;;;;;11.80;10.60;;;;;;;22.37;92.13;94694.84;5055336;28;20445;-81
2022/09/02 08:52:41;;;;;;;12.50;10.93;;;;;;;22.41;91.68;94691.53;5055783;28;20441;-81
2022/09/02 08:55:16;;;;;;;13.10;10.03;;;;;;;22.51;91.64;94696.44;5055437;28;20804;-81
2022/09/02 08:57:45;;;;;;;15.07;10.77;;;;;;;22.50;89.40;94694.81;5055577;28;20934;-81
2022/09/02 09:00:16;;;;;;;17.20;11.70;;;;;;;22.47;88.89;94701.41;5055182;28;20489;-81
2022/09/02 09:02:55;;;;;;;16.07;14.47;;;;;;;22.40;88.91;94697.91;5037117;28;20445;-81
2022/09/02 09:05:33;;;;;;;19.07;14.47;;;;;;;22.09;88.97;94701.22;5055258;28;20948;-81
2022/09/02 09:08:12;;;;;;;16.00;13.90;;;;;;;22.23;89.21;94697.50;5055344;28;20453;-81
2022/09/02 09:10:55;;;;;;;16.00;14.47;;;;;;;22.19;90.51;94690.94;5055116;28;20453;-81
2022/09/02 09:13:43;;;;;;;15.40;13.90;;;;;;;22.16;90.06;94682.50;5055070;28;20452;-81
2022/09/02 09:16:19;;;;;;;16.80;14.73;;;;;;;22.18;90.96;94689.28;5055049;28;20449;-81
2022/09/02 09:18:55;;;;;;;18.93;15.53;;;;;;;22.10;89.84;94678.81;5055295;28;20492;-81
2022/09/02 09:21:23;;;;;;;17.47;15.70;;;;;;;22.14;90.13;94679.22;5055000;28;20492;-81
2022/09/02 09:23:52;;;;;;;17.23;15.57;;;;;;;22.19;91.10;94679.41;5054806;28;20532;-81
2022/09/02 09:26:27;;;;;;;17.43;15.60;;;;;;;22.29;91.71;94679.00;5055180;28;20456;-81
2022/09/02 09:28:54;;;;;;;17.43;15.70;;;;;;;22.38;91.46;94675.09;5054942;28;20468;-81
2022/09/02 09:31:24;;;;;;;18.77;16.40;;;;;;;22.47;90.33;94679.19;5054229;28;20459;-81
2022/09/02 09:34:01;;;;;;;21.07;18.80;;;;;;;22.51;89.18;94675.06;5035901;28;20524;-81
2022/09/02 09:36:46;;;;;;;18.97;16.80;;;;;;;22.56;90.13;94677.94;5054740;28;20452;-81
2022/09/02 09:39:23;;;;;;;18.37;15.70;;;;;;;22.65;89.66;94679.34;5054484;28;20450;-81
2022/09/02 09:41:51;;;;;;;20.03;14.70;;;;;;;22.67;89.60;94671.94;5054764;28;20447;-81
2022/09/02 09:44:39;;;;;;;17.83;16.13;;;;;;;22.70;88.86;94670.69;5054513;28;20466;-81
2022/09/02 09:47:09;;;;;;;24.50;16.40;;;;;;;22.81;88.96;94665.53;5054389;28;20446;-81
2022/09/02 09:49:39;;;;;;;17.67;15.87;;;;;;;22.85;88.70;94669.47;5054487;28;20464;-81
2022/09/02 09:52:05;;;;;;;23.07;15.10;;;;;;;22.85;87.28;94674.00;5054740;28;20536;-81
2022/09/02 09:54:33;;;;;;;17.77;16.07;;;;;;;22.89;87.98;94672.53;5054277;28;20461;-81
2022/09/02 09:57:16;;;;;;;17.73;15.83;;;;;;;22.80;87.55;94671.91;5054320;28;20445;-81
2022/09/02 09:59:48;;;;;;;18.20;14.83;;;;;;;22.82;87.50;94679.75;5054205;28;20517;-81
2022/09/02 10:02:21;;;;;;;20.30;16.40;;;;;;;22.88;86.92;94678.91;5036173;28;20478;-81
2022/09/02 10:04:50;;;;;;;17.67;15.97;;;;;;;22.93;86.76;94678.28;5035311;28;20474;-81
2022/09/02 10:07:36;;;;;;;17.60;15.20;;;;;;;22.81;87.51;94684.28;5018933;28;20446;-81
2022/09/02 10:10:16;;;;;;;18.00;16.00;;;;;;;22.91;87.20;94683.84;5053990;28;20464;-81
2022/09/02 10:12:44;;;;;;;18.27;16.23;;;;;;;22.89;88.06;94679.75;5054078;28;20529;-81
2022/09/02 10:15:11;;;;;;;15.23;13.80;;;;;;;22.89;87.80;94674.38;5054062;28;20452;-81
2022/09/02 10:17:50;;;;;;;16.80;15.10;;;;;;;22.97;87.04;94672.28;5053934;28;20442;-81
2022/09/02 10:20:25;;;;;;;18.57;16.63;;;;;;;23.08;86.86;94678.81;5054141;28;20481;-81
2022/09/02 10:23:09;;;;;;;16.97;15.23;;;;;;;23.22;87.88;94677.75;5053889;28;20445;-81
2022/09/02 10:25:47;;;;;;;16.70;15.07;;;;;;;23.26;85.53;94676.28;5054043;28;20442;-81
2022/09/02 10:28:29;;;;;;;15.67;13.90;;;;;;;23.29;85.61;94675.03;5053490;28;20441;-81
2022/09/02 10:31:10;;;;;;;22.10;15.23;;;;;;;23.34;85.80;94669.84;5053734;28;20441;-81
2022/09/02 10:33:46;;;;;;;16.63;13.87;;;;;;;23.22;85.36;94664.38;5053503;28;20476;-81
2022/09/02 10:36:24;;;;;;;16.37;14.67;;;;;;;23.19;85.76;94670.16;5053383;28;20445;-81
2022/09/02 10:38:50;;;;;;;19.30;14.20;;;;;;;23.17;87.07;94662.34;5053430;28;20996;-81
2022/09/02 10:41:33;;;;;;;16.47;14.30;;;;;;;23.33;86.92;94671.72;5053666;28;20489;-81
2022/09/02 10:44:16;;;;;;;16.70;14.90;;;;;;;23.42;84.43;94666.97;5052858;28;20469;-81
2022/09/02 10:46:54;;;;;;;21.70;16.13;;;;;;;23.60;83.25;94669.75;5053522;28;20833;-81
2022/09/02 10:49:42;;;;;;;21.90;16.70;;;;;;;23.91;83.31;94676.97;5053306;28;20503;-81
2022/09/02 10:52:20;;;;;;;22.10;16.27;;;;;;;24.18;82.20;94676.75;5053431;28;20503;-81
2022/09/02 10:54:55;;;;;;;17.67;15.80;;;;;;;24.29;79.62;94681.44;5053116;28;20987;-81
2022/09/02 10:57:28;;;;;;;19.90;15.97;;;;;;;24.34;79.57;94679.75;5034557;28;20456;-81
2022/09/02 11:00:03;;;;;;;23.50;15.90;;;;;;;24.18;80.68;94674.06;5053151;28;20537;-81
2022/09/02 11:02:35;;;;;;;16.17;14.47;;;;;;;24.12;81.19;94674.94;5052957;28;20831;-81
2022/09/02 11:05:05;;;;;;;21.20;17.20;;;;;;;23.95;81.71;94677.34;5053227;28;20528;-81
2022/09/02 11:07:40;;;;;;;19.53;16.37;;;;;;;23.61;84.10;94666.03;5052902;28;20445;-81
2022/09/02 11:10:12;;;;;;;18.90;15.73;;;;;;;23.54;84.71;94664.41;5052899;28;20449;-81
2022/09/02 11:12:45;;;;;;;21.60;15.50;;;;;;;23.52;83.90;94661.94;5052902;28;20481;-81
2022/09/02 11:15:18;;;;;;;18.60;16.63;;;;;;;23.58;83.53;94660.28;5052789;28;20523;-81
2022/09/02 11:17:49;;;;;;;19.13;16.60;;;;;;;23.61;83.75;94651.81;5052886;28;20533;-81
2022/09/02 11:20:29;;;;;;;18.70;16.90;;;;;;;23.61;83.52;94647.28;5052683;28;20980;-81
2022/09/02 11:23:06;;;;;;;21.00;17.47;;;;;;;23.58;83.11;94652.25;5052747;28;20473;-81
2022/09/02 11:25:39;;;;;;;20.80;18.30;;;;;;;23.64;83.44;94646.03;5052506;28;20445;-81
2022/09/02 11:28:23;;;;;;;19.27;17.20;;;;;;;23.67;83.40;94650.94;5052700;28;20450;-81
2022/09/02 11:30:56;;;;;;;19.13;17.10;;;;;;;23.59;82.49;94651.22;5015778;28;20441;-81
2022/09/02 11:33:30;;;;;;;18.97;17.07;;;;;;;23.66;84.83;94638.59;5016949;28;20492;-81